createdAt,value
2022-08-05T00:02:07.259Z,4.13
2022-08-05T00:04:10.159Z,4.45
2022-08-05T00:06:27.922Z,4.38
2022-08-05T00:08:34.509Z,4.47
2022-08-05T00:10:37.360Z,4.25
2022-08-05T00:12:55.817Z,4.30
2022-08-05T00:14:59.014Z,4.10
2022-08-05T00:17:19.525Z,4.90
2022-08-05T00:19:33.789Z,4.70
2022-08-05T00:21:46.155Z,5.28
2022-08-05T00:24:09.845Z,4.47
2022-08-05T00:26:10.290Z,4.63
2022-08-05T00:28:12.777Z,4.60
2022-08-05T00:30:14.809Z,4.47
2022-08-05T00:32:16.802Z,4.93
2022-08-05T00:34:54.614Z,4.78
2022-08-05T00:37:11.837Z,4.40
2022-08-05T00:39:02.973Z,4.20
2022-08-05T00:41:11.942Z,4.47
2022-08-05T00:43:15.284Z,5.13
2022-08-05T00:45:17.472Z,5.13
2022-08-05T00:47:53.337Z,5.53
2022-08-05T00:49:52.539Z,5.20
2022-08-05T00:51:54.549Z,5.07
2022-08-05T00:54:02.225Z,5.40
2022-08-05T00:56:08.093Z,5.00
2022-08-05T00:58:14.543Z,5.07
2022-08-05T01:00:17.061Z,4.95
2022-08-05T01:02:21.963Z,4.78
2022-08-05T01:04:29.754Z,5.43
2022-08-05T01:06:32.438Z,5.13
2022-08-05T01:08:43.378Z,5.20
2022-08-05T01:10:58.289Z,5.30
2022-08-05T01:13:13.411Z,4.90
2022-08-05T01:15:35.239Z,4.85
2022-08-05T01:17:53.831Z,4.90
2022-08-05T01:20:17.016Z,4.75
2022-08-05T01:22:40.847Z,4.22
2022-08-05T01:25:13.657Z,4.85
2022-08-05T01:28:11.989Z,5.20
2022-08-05T01:30:18.925Z,5.05
2022-08-05T01:32:22.994Z,5.28
2022-08-05T01:34:35.863Z,5.00
2022-08-05T01:37:24.978Z,5.20
2022-08-05T01:39:46.274Z,4.57
2022-08-05T01:41:49.356Z,5.18
2022-08-05T01:43:52.249Z,5.35
2022-08-05T01:45:56.786Z,5.32
2022-08-05T01:48:00.786Z,5.10
2022-08-05T01:50:18.894Z,5.20
2022-08-05T01:52:32.384Z,5.13
2022-08-05T01:54:45.770Z,4.80
2022-08-05T01:58:12.556Z,5.32
2022-08-05T01:59:16.040Z,5.22
2022-08-05T02:01:21.497Z,4.80
2022-08-05T02:03:39.056Z,5.90
2022-08-05T02:05:42.650Z,5.53
2022-08-05T02:07:59.834Z,5.10
2022-08-05T02:10:04.558Z,5.35
2022-08-05T02:12:47.040Z,5.55
2022-08-05T02:15:26.159Z,5.47
2022-08-05T02:18:33.179Z,5.47
2022-08-05T02:20:49.752Z,5.82
2022-08-05T02:23:05.641Z,5.15
2022-08-05T02:25:49.507Z,5.80
2022-08-05T02:27:58.911Z,5.22
2022-08-05T02:30:02.171Z,5.78
2022-08-05T02:32:05.429Z,4.65
2022-08-05T02:34:12.090Z,5.55
2022-08-05T02:36:15.341Z,5.50
2022-08-05T02:38:19.466Z,5.43
2022-08-05T02:40:22.830Z,5.40
2022-08-05T02:42:30.703Z,5.25
2022-08-05T02:44:38.117Z,5.50
2022-08-05T02:46:53.114Z,5.45
2022-08-05T02:49:01.078Z,6.03
2022-08-05T02:51:03.395Z,5.90
2022-08-05T02:53:05.422Z,5.60
2022-08-05T02:55:14.183Z,5.65
2022-08-05T02:58:11.487Z,6.35
2022-08-05T02:59:50.487Z,5.78
2022-08-05T03:01:58.195Z,5.72
2022-08-05T03:04:11.943Z,6.18
2022-08-05T03:06:54.061Z,5.78
2022-08-05T03:08:42.591Z,5.95
2022-08-05T03:11:01.335Z,5.60
2022-08-05T03:13:17.785Z,6.22
2022-08-05T03:15:19.786Z,6.47
2022-08-05T03:17:22.083Z,6.25
2022-08-05T03:19:33.941Z,6.57
2022-08-05T03:21:41.347Z,6.45
2022-08-05T03:23:50.654Z,5.80
2022-08-05T03:26:30.383Z,6.22
2022-08-05T03:28:14.633Z,6.35
2022-08-05T03:30:20.895Z,6.55
2022-08-05T03:32:32.362Z,6.57
2022-08-05T03:34:35.336Z,6.40
2022-08-05T03:36:37.557Z,6.57
2022-08-05T03:38:42.874Z,7.22
2022-08-05T03:40:54.555Z,7.17
2022-08-05T03:43:01.429Z,6.53
2022-08-05T03:45:21.102Z,6.85
2022-08-05T03:47:24.587Z,6.38
2022-08-05T03:52:37.668Z,6.22
2022-08-05T03:56:01.205Z,6.47
2022-08-05T03:56:53.051Z,6.85
2022-08-05T03:58:57.925Z,6.70
2022-08-05T04:01:01.889Z,6.57
2022-08-05T04:03:06.127Z,6.85
2022-08-05T04:05:10.133Z,6.55
2022-08-05T04:07:12.307Z,6.30
2022-08-05T04:09:15.653Z,7.13
2022-08-05T04:11:22.630Z,7.75
2022-08-05T04:13:25.663Z,7.60
2022-08-05T04:16:03.263Z,7.35
2022-08-05T04:18:09.279Z,6.70
2022-08-05T04:20:23.703Z,6.85
2022-08-05T04:22:26.560Z,6.95
2022-08-05T04:24:28.652Z,7.10
2022-08-05T04:28:34.722Z,7.00
2022-08-05T04:30:36.858Z,7.57
2022-08-05T04:32:39.036Z,7.18
2022-08-05T04:34:43.245Z,6.78
2022-08-05T04:36:50.414Z,7.40
2022-08-05T04:38:54.737Z,7.45
2022-08-05T04:40:59.027Z,7.20
2022-08-05T04:43:01.079Z,6.97
2022-08-05T04:45:03.349Z,7.53
2022-08-05T04:47:09.483Z,7.55
2022-08-05T04:49:14.906Z,6.68
2022-08-05T04:51:17.778Z,7.18
2022-08-05T04:53:20.052Z,8.25
2022-08-05T04:57:47.989Z,6.88
2022-08-05T04:59:53.527Z,6.75
2022-08-05T05:02:34.996Z,7.72
2022-08-05T05:04:17.648Z,7.60
2022-08-05T05:06:39.995Z,7.43
2022-08-05T05:08:42.786Z,6.70
2022-08-05T05:10:47.289Z,7.50
2022-08-05T05:12:58.716Z,7.10
2022-08-05T05:15:03.661Z,7.47
2022-08-05T05:17:07.550Z,7.70
2022-08-05T05:19:19.476Z,7.07
2022-08-05T05:21:27.221Z,7.72
2022-08-05T05:23:39.385Z,9.57
2022-08-05T05:25:51.357Z,8.30
2022-08-05T05:27:55.895Z,8.57
2022-08-05T05:30:03.868Z,7.80
2022-08-05T05:32:07.339Z,7.22
2022-08-05T05:34:15.611Z,8.50
2022-08-05T05:36:18.689Z,8.10
2022-08-05T05:38:22.376Z,8.45
2022-08-05T05:40:30.295Z,7.60
2022-08-05T05:42:34.237Z,8.05
2022-08-05T05:44:37.683Z,7.30
2022-08-05T05:46:44.907Z,7.38
2022-08-05T05:48:49.850Z,7.38
2022-08-05T05:50:52.860Z,8.60
2022-08-05T05:52:54.870Z,7.35
2022-08-05T05:55:00.843Z,7.18
2022-08-05T05:57:03.889Z,7.97
2022-08-05T05:59:15.635Z,8.40
2022-08-05T06:01:17.616Z,7.60
2022-08-05T06:03:40.741Z,7.05
2022-08-05T06:05:54.304Z,7.40
2022-08-05T06:08:02.020Z,6.80
2022-08-05T06:10:10.214Z,7.25
2022-08-05T06:12:12.583Z,8.15
2022-08-05T06:14:17.644Z,6.63
2022-08-05T06:16:30.806Z,6.78
2022-08-05T06:18:36.595Z,7.03
2022-08-05T06:20:41.502Z,7.05
2022-08-05T06:22:49.778Z,7.57
2022-08-05T06:26:54.544Z,6.32
2022-08-05T06:28:57.604Z,6.43
2022-08-05T06:31:11.086Z,6.85
2022-08-05T06:34:00.495Z,6.30
2022-08-05T06:36:04.003Z,5.88
2022-08-05T06:38:11.222Z,5.90
2022-08-05T06:40:14.103Z,5.93
2022-08-05T06:42:22.989Z,6.05
2022-08-05T06:44:27.739Z,5.10
2022-08-05T06:46:30.627Z,3.55
2022-08-05T06:48:53.538Z,4.97
2022-08-05T06:50:57.177Z,4.13
2022-08-05T06:53:11.457Z,3.63
2022-08-05T06:55:13.847Z,4.07
2022-08-05T06:58:02.610Z,3.08
2022-08-05T06:59:42.206Z,3.10
2022-08-05T07:01:53.038Z,3.22
2022-08-05T07:03:55.183Z,3.03
2022-08-05T07:05:57.161Z,3.40
2022-08-05T07:07:59.175Z,2.88
2022-08-05T07:10:03.352Z,3.45
2022-08-05T07:12:06.038Z,3.35
2022-08-05T07:14:29.808Z,2.97
2022-08-05T07:17:58.981Z,2.97
2022-08-05T07:19:12.560Z,3.72
2022-08-05T07:21:18.195Z,2.97
2022-08-05T07:23:29.441Z,2.83
2022-08-05T07:25:56.318Z,2.72
2022-08-05T07:27:56.367Z,3.28
2022-08-05T07:30:24.007Z,3.15
2022-08-05T07:32:26.054Z,3.25
2022-08-05T07:34:28.797Z,3.03
2022-08-05T07:36:31.070Z,3.10
2022-08-05T07:38:42.666Z,2.88
2022-08-05T07:42:57.684Z,3.05
2022-08-05T07:45:01.015Z,2.90
2022-08-05T07:47:06.924Z,2.85
2022-08-05T07:49:10.128Z,3.40
2022-08-05T07:51:23.751Z,2.95
2022-08-05T07:53:36.843Z,3.07
2022-08-05T07:56:06.202Z,2.85
2022-08-05T07:58:17.707Z,2.70
2022-08-05T08:00:36.348Z,3.05
2022-08-05T08:03:15.451Z,2.92
2022-08-05T08:05:00.750Z,2.63
2022-08-05T08:07:05.510Z,2.50
2022-08-05T08:09:09.259Z,2.72
2022-08-05T08:11:13.775Z,2.90
2022-08-05T08:13:22.133Z,3.03
2022-08-05T08:16:35.712Z,2.58
2022-08-05T08:17:53.387Z,2.70
2022-08-05T08:20:44.401Z,3.20
2022-08-05T08:22:17.416Z,2.92
2022-08-05T08:24:20.197Z,2.65
2022-08-05T08:26:26.531Z,2.47
2022-08-05T08:28:36.410Z,3.03
2022-08-05T08:30:47.948Z,2.75
2022-08-05T08:32:51.786Z,2.67
2022-08-05T08:34:55.508Z,3.25
2022-08-05T08:37:04.737Z,2.70
2022-08-05T08:39:15.689Z,2.65
2022-08-05T08:41:18.492Z,2.58
2022-08-05T08:45:18.095Z,2.60
2022-08-05T08:45:44.356Z,2.70
2022-08-05T08:48:07.648Z,2.80
2022-08-05T08:50:31.077Z,2.20
2022-08-05T08:52:33.774Z,2.97
2022-08-05T08:54:36.232Z,2.50
2022-08-05T08:56:47.681Z,2.45
2022-08-05T09:00:53.617Z,2.83
2022-08-05T09:02:55.769Z,2.45
2022-08-05T09:05:17.810Z,2.83
2022-08-05T09:07:28.894Z,2.60
2022-08-05T09:09:41.575Z,2.67
2022-08-05T09:11:50.686Z,2.78
2022-08-05T09:14:10.085Z,2.30
2022-08-05T09:16:18.120Z,2.60
2022-08-05T09:18:20.818Z,2.33
2022-08-05T09:20:37.396Z,2.78
2022-08-05T09:23:18.746Z,2.72
2022-08-05T09:25:24.452Z,3.47
2022-08-05T09:28:03.830Z,2.53
2022-08-05T09:30:07.411Z,2.45
2022-08-05T09:32:40.126Z,2.33
2022-08-05T09:34:52.793Z,2.47
2022-08-05T09:36:59.205Z,2.50
2022-08-05T09:39:18.528Z,2.60
2022-08-05T09:41:24.276Z,2.38
2022-08-05T09:43:40.915Z,2.65
2022-08-05T09:46:07.605Z,2.50
2022-08-05T09:48:28.554Z,2.60
2022-08-05T09:50:37.513Z,2.70
2022-08-05T09:52:45.070Z,2.55
2022-08-05T09:54:58.665Z,2.58
2022-08-05T09:57:01.336Z,2.20
2022-08-05T09:59:09.711Z,2.45
2022-08-05T10:01:31.630Z,2.33
2022-08-05T10:03:56.767Z,3.00
2022-08-05T10:06:15.741Z,2.67
2022-08-05T10:08:36.745Z,2.47
2022-08-05T10:10:50.237Z,2.27
2022-08-05T10:12:58.410Z,2.50
2022-08-05T10:15:25.651Z,2.55
2022-08-05T10:17:37.949Z,2.50
2022-08-05T10:20:04.337Z,2.45
2022-08-05T10:22:04.159Z,2.88
2022-08-05T10:24:11.097Z,2.20
2022-08-05T10:26:14.173Z,2.60
2022-08-05T10:28:29.225Z,2.88
2022-08-05T10:32:46.780Z,2.97
2022-08-05T10:33:01.084Z,2.65
2022-08-05T10:35:05.229Z,2.40
2022-08-05T10:37:07.306Z,2.80
2022-08-05T10:39:24.586Z,2.88
2022-08-05T10:41:47.964Z,3.03
2022-08-05T10:44:05.910Z,2.97
2022-08-05T10:46:11.843Z,2.65
2022-08-05T10:48:36.225Z,2.78
2022-08-05T10:51:22.210Z,2.70
2022-08-05T10:53:42.710Z,2.85
2022-08-05T10:56:21.651Z,2.60
2022-08-05T10:58:36.194Z,2.80
2022-08-05T11:00:55.367Z,2.88
2022-08-05T11:03:23.172Z,2.40
2022-08-05T11:05:31.576Z,3.08
2022-08-05T11:08:03.014Z,2.60
2022-08-05T11:10:03.732Z,3.70
2022-08-05T11:12:27.148Z,2.97
2022-08-05T11:15:01.040Z,3.20
2022-08-05T11:17:58.883Z,2.83
2022-08-05T11:20:16.669Z,2.90
2022-08-05T11:23:00.468Z,3.63
2022-08-05T11:26:04.417Z,3.13
2022-08-05T11:28:17.140Z,2.85
2022-08-05T11:30:19.431Z,2.90
2022-08-05T11:34:51.689Z,3.10
2022-08-05T11:36:56.491Z,3.28
2022-08-05T11:38:59.204Z,3.33
2022-08-05T11:41:34.996Z,2.75
2022-08-05T11:44:00.960Z,3.00
2022-08-05T11:46:30.624Z,2.67
2022-08-05T11:48:12.610Z,2.80
2022-08-05T11:50:16.732Z,3.00
2022-08-05T11:52:29.440Z,2.67
2022-08-05T11:54:34.617Z,2.80
2022-08-05T11:56:50.452Z,3.17
2022-08-05T11:58:54.191Z,2.97
2022-08-05T12:01:22.431Z,2.88
2022-08-05T12:03:31.639Z,3.00
2022-08-05T12:05:39.569Z,2.92
2022-08-05T12:08:08.073Z,3.35
2022-08-05T12:10:11.464Z,3.38
2022-08-05T12:12:14.319Z,2.90
2022-08-05T12:14:18.195Z,2.95
2022-08-05T12:16:25.376Z,3.38
2022-08-05T12:18:33.179Z,3.40
2022-08-05T12:20:38.704Z,3.13
2022-08-05T12:22:40.996Z,3.30
2022-08-05T12:24:50.530Z,3.20
2022-08-05T12:26:53.981Z,2.80
2022-08-05T12:28:55.993Z,3.03
2022-08-05T12:33:07.522Z,2.97
2022-08-05T12:35:39.698Z,3.05
2022-08-05T12:37:43.143Z,3.20
2022-08-05T12:39:48.634Z,3.20
2022-08-05T12:41:59.573Z,3.20
2022-08-05T12:44:14.486Z,3.03
2022-08-05T12:46:29.375Z,3.70
2022-08-05T12:48:39.226Z,2.97
2022-08-05T12:50:41.955Z,3.00
2022-08-05T12:52:56.826Z,3.22
2022-08-05T12:54:59.934Z,3.22
2022-08-05T12:59:20.943Z,3.20
2022-08-05T13:02:02.133Z,3.17
2022-08-05T13:03:51.777Z,2.97
2022-08-05T13:08:00.623Z,3.50
2022-08-05T13:10:04.048Z,3.28
2022-08-05T13:12:16.225Z,2.90
2022-08-05T13:16:57.648Z,2.78
2022-08-05T13:19:00.774Z,3.75
2022-08-05T13:21:02.767Z,3.70
2022-08-05T13:23:07.305Z,3.05
2022-08-05T13:25:19.480Z,3.10
2022-08-05T13:27:37.982Z,3.42
2022-08-05T13:30:32.375Z,3.50
2022-08-05T13:32:04.084Z,3.47
2022-08-05T13:34:25.160Z,3.35
2022-08-05T13:36:28.180Z,3.53
2022-08-05T13:38:38.206Z,3.30
2022-08-05T13:40:52.007Z,2.95
2022-08-05T13:42:55.512Z,3.30
2022-08-05T13:44:57.781Z,2.92
2022-08-05T13:47:01.683Z,3.40
2022-08-05T13:49:10.327Z,3.17
2022-08-05T13:51:14.103Z,2.75
2022-08-05T13:53:16.283Z,3.08
2022-08-05T13:55:40.842Z,3.50
2022-08-05T13:57:51.530Z,3.33
2022-08-05T13:59:59.424Z,3.55
2022-08-05T14:02:05.213Z,3.10
2022-08-05T14:04:27.665Z,3.28
2022-08-05T14:06:29.866Z,3.50
2022-08-05T14:08:32.383Z,3.55
2022-08-05T14:10:35.603Z,3.35
2022-08-05T14:12:40.165Z,3.78
2022-08-05T14:14:45.371Z,3.22
2022-08-05T14:16:47.415Z,3.40
2022-08-05T14:18:52.213Z,3.35
2022-08-05T14:20:54.821Z,3.30
2022-08-05T14:23:00.352Z,3.80
2022-08-05T14:25:06.305Z,3.50
2022-08-05T14:27:21.291Z,4.07
2022-08-05T14:29:23.743Z,3.35
2022-08-05T14:32:03.945Z,3.00
2022-08-05T14:33:59.351Z,3.17
2022-08-05T14:36:03.248Z,3.60
2022-08-05T14:38:05.230Z,3.38
2022-08-05T14:40:07.916Z,3.53
2022-08-05T14:42:19.712Z,3.67
2022-08-05T14:44:23.480Z,3.58
2022-08-05T14:46:28.447Z,3.30
2022-08-05T14:48:33.272Z,3.28
2022-08-05T14:50:40.673Z,3.33
2022-08-05T14:52:53.188Z,3.10
2022-08-05T14:54:58.786Z,3.40
2022-08-05T14:57:05.421Z,3.22
2022-08-05T14:59:11.861Z,3.40
2022-08-05T15:01:16.051Z,3.47
2022-08-05T15:03:18.887Z,3.60
2022-08-05T15:05:29.960Z,3.60
2022-08-05T15:08:11.240Z,3.70
2022-08-05T15:12:16.726Z,3.55
2022-08-05T15:14:20.114Z,3.08
2022-08-05T15:16:36.469Z,3.30
2022-08-05T15:18:39.355Z,3.40
2022-08-05T15:20:43.350Z,3.65
2022-08-05T15:22:54.215Z,3.22
2022-08-05T15:24:59.189Z,3.47
2022-08-05T15:27:01.390Z,3.55
2022-08-05T15:29:05.484Z,3.67
2022-08-05T15:31:08.206Z,3.78
2022-08-05T15:33:11.643Z,4.10
2022-08-05T15:35:14.727Z,3.50
2022-08-05T15:37:20.650Z,3.70
2022-08-05T15:41:03.338Z,3.38
2022-08-05T15:42:01.172Z,3.50
2022-08-05T15:44:23.118Z,3.50
2022-08-05T15:46:25.339Z,3.33
2022-08-05T15:48:27.378Z,3.47
2022-08-05T15:50:29.381Z,3.33
2022-08-05T15:52:53.963Z,3.55
2022-08-05T15:54:55.333Z,4.03
2022-08-05T15:56:58.549Z,3.70
2022-08-05T15:59:01.285Z,3.88
2022-08-05T16:03:18.940Z,3.38
2022-08-05T16:05:22.891Z,3.35
2022-08-05T16:07:30.701Z,3.45
2022-08-05T16:09:32.764Z,3.15
2022-08-05T16:11:39.911Z,3.63
2022-08-05T16:13:45.710Z,3.55
2022-08-05T16:15:47.704Z,3.38
2022-08-05T16:20:04.871Z,3.70
2022-08-05T16:22:15.525Z,3.80
2022-08-05T16:24:36.068Z,3.30
2022-08-05T16:27:00.491Z,3.70
2022-08-05T16:29:02.674Z,3.80
2022-08-05T16:31:06.092Z,3.60
2022-08-05T16:33:12.575Z,3.70
2022-08-05T16:35:17.945Z,3.25
2022-08-05T16:38:15.414Z,3.50
2022-08-05T16:40:05.689Z,3.97
2022-08-05T16:42:14.525Z,3.80
2022-08-05T16:44:18.985Z,3.50
2022-08-05T16:46:24.191Z,3.58
2022-08-05T16:48:33.464Z,3.17
2022-08-05T16:50:37.613Z,4.03
2022-08-05T16:54:48.134Z,3.10
2022-08-05T16:56:52.133Z,3.67
2022-08-05T16:58:54.298Z,3.78
2022-08-05T17:00:56.354Z,3.70
2022-08-05T17:02:58.391Z,3.10
2022-08-05T17:05:00.415Z,4.05
2022-08-05T17:07:03.170Z,3.55
2022-08-05T17:09:05.786Z,3.45
2022-08-05T17:13:17.123Z,3.53
2022-08-05T17:15:23.274Z,3.65
2022-08-05T17:17:42.429Z,3.80
2022-08-05T17:19:46.195Z,3.88
2022-08-05T17:21:51.493Z,3.40
2022-08-05T17:24:05.632Z,3.47
2022-08-05T17:26:15.706Z,3.58
2022-08-05T17:28:17.719Z,3.30
2022-08-05T17:30:28.357Z,3.78
2022-08-05T17:32:32.258Z,4.13
2022-08-05T17:34:36.528Z,3.92
2022-08-05T17:36:40.643Z,4.10
2022-08-05T17:38:42.894Z,3.92
2022-08-05T17:40:45.533Z,3.90
2022-08-05T17:42:51.120Z,3.90
2022-08-05T17:44:54.155Z,4.22
2022-08-05T17:46:56.168Z,4.43
2022-08-05T17:49:00.043Z,4.05
2022-08-05T17:51:02.684Z,3.83
2022-08-05T17:53:11.705Z,3.67
2022-08-05T17:55:13.918Z,3.92
2022-08-05T17:57:17.763Z,4.57
2022-08-05T17:59:22.726Z,3.92
2022-08-05T18:01:25.445Z,3.65
2022-08-05T18:03:56.225Z,4.60
2022-08-05T18:05:53.408Z,4.90
2022-08-05T18:07:56.917Z,6.72
2022-08-05T18:10:08.722Z,6.90
2022-08-05T18:12:12.277Z,6.68
2022-08-05T18:14:20.564Z,8.20
2022-08-05T18:16:23.116Z,7.50
2022-08-05T18:18:26.294Z,7.57
2022-08-05T18:20:32.004Z,7.93
2022-08-05T18:22:36.204Z,7.13
2022-08-05T18:24:48.481Z,7.00
2022-08-05T18:26:52.344Z,7.22
2022-08-05T18:28:54.372Z,7.72
2022-08-05T18:30:56.409Z,7.20
2022-08-05T18:33:00.856Z,7.20
2022-08-05T18:35:03.384Z,8.10
2022-08-05T18:37:12.662Z,7.50
2022-08-05T18:39:42.575Z,7.15
2022-08-05T18:41:55.078Z,7.67
2022-08-05T18:44:06.462Z,7.30
2022-08-05T18:46:10.262Z,7.65
2022-08-05T18:48:17.502Z,7.50
2022-08-05T18:50:52.405Z,7.30
2022-08-05T18:52:54.884Z,7.20
2022-08-05T18:54:57.782Z,8.05
2022-08-05T18:57:01.118Z,8.00
2022-08-05T18:59:03.382Z,7.28
2022-08-05T19:01:47.286Z,6.73
2022-08-05T19:03:55.041Z,7.37
2022-08-05T19:06:12.905Z,6.95
2022-08-05T19:08:21.688Z,7.53
2022-08-05T19:10:26.612Z,7.07
2022-08-05T19:12:33.646Z,7.60
2022-08-05T19:14:59.594Z,7.20
2022-08-05T19:16:57.841Z,6.77
2022-08-05T19:18:59.883Z,7.07
2022-08-05T19:21:01.949Z,7.32
2022-08-05T19:23:07.772Z,7.82
2022-08-05T19:25:10.693Z,7.15
2022-08-05T19:27:24.916Z,9.68
2022-08-05T19:29:36.104Z,7.25
2022-08-05T19:31:44.757Z,6.95
2022-08-05T19:33:56.292Z,6.63
2022-08-05T19:35:59.033Z,7.50
2022-08-05T19:38:08.017Z,6.35
2022-08-05T19:40:11.817Z,7.20
2022-08-05T19:42:15.322Z,7.43
2022-08-05T19:44:18.909Z,7.18
2022-08-05T19:46:29.641Z,7.82
2022-08-05T19:48:34.266Z,9.52
2022-08-05T19:50:36.807Z,7.88
2022-08-05T19:52:40.766Z,7.60
2022-08-05T19:54:43.084Z,9.13
2022-08-05T19:58:53.740Z,7.70
2022-08-05T20:00:56.571Z,8.75
2022-08-05T20:02:59.902Z,7.85
2022-08-05T20:05:04.648Z,8.75
2022-08-05T20:07:13.004Z,8.25
2022-08-05T20:09:15.557Z,8.30
2022-08-05T20:11:20.413Z,7.45
2022-08-05T20:13:54.534Z,8.23
2022-08-05T20:15:52.073Z,8.23
2022-08-05T20:18:01.855Z,8.10
2022-08-05T20:20:09.656Z,7.90
2022-08-05T20:22:13.245Z,8.05
2022-08-05T20:24:16.037Z,7.68
2022-08-05T20:26:19.997Z,7.05
2022-08-05T20:28:22.088Z,7.47
2022-08-05T20:30:26.436Z,7.18
2022-08-05T20:32:28.609Z,8.38
2022-08-05T20:34:30.679Z,7.45
2022-08-05T20:36:33.013Z,6.90
2022-08-05T20:38:35.682Z,7.68
2022-08-05T20:40:38.135Z,6.97
2022-08-05T20:42:45.181Z,7.85
2022-08-05T20:44:47.227Z,7.55
2022-08-05T20:46:49.246Z,8.15
2022-08-05T20:48:51.406Z,7.03
2022-08-05T20:50:53.434Z,6.60
2022-08-05T20:52:55.490Z,6.68
2022-08-05T20:55:55.688Z,6.70
2022-08-05T20:57:42.072Z,6.75
2022-08-05T21:00:11.160Z,6.38
2022-08-05T21:02:04.680Z,6.72
2022-08-05T21:04:10.661Z,6.80
2022-08-05T21:06:28.368Z,6.43
2022-08-05T21:08:41.781Z,9.32
2022-08-05T21:10:48.823Z,7.32
2022-08-05T21:13:08.231Z,7.25
2022-08-05T21:15:13.343Z,7.30
2022-08-05T21:17:15.529Z,6.90
2022-08-05T21:19:17.586Z,6.97
2022-08-05T21:21:24.411Z,6.78
2022-08-05T21:23:26.574Z,6.38
2022-08-05T21:27:38.533Z,7.55
2022-08-05T21:29:41.118Z,7.68
2022-08-05T21:31:43.160Z,7.75
2022-08-05T21:33:47.818Z,6.90
2022-08-05T21:35:58.736Z,7.60
2022-08-05T21:38:02.316Z,7.57
2022-08-05T21:40:05.883Z,7.25
2022-08-05T21:42:40.881Z,7.85
2022-08-05T21:44:31.818Z,7.90
2022-08-05T21:46:34.577Z,6.53
2022-08-05T21:48:36.938Z,7.03
2022-08-05T21:50:42.489Z,7.68
2022-08-05T21:52:59.060Z,7.05
2022-08-05T21:55:10.798Z,7.38
2022-08-05T21:57:31.219Z,7.50
2022-08-05T21:59:54.119Z,7.50
2022-08-05T22:01:56.291Z,7.05
2022-08-05T22:03:58.292Z,6.75
2022-08-05T22:06:00.353Z,7.35
2022-08-05T22:10:08.850Z,7.10
2022-08-05T22:12:11.939Z,7.10
2022-08-05T22:14:34.438Z,7.10
2022-08-05T22:16:41.706Z,7.07
2022-08-05T22:18:52.936Z,6.90
2022-08-05T22:20:55.905Z,6.65
2022-08-05T22:23:21.484Z,5.93
2022-08-05T22:28:11.747Z,6.35
2022-08-05T22:30:15.401Z,6.70
2022-08-05T22:32:19.337Z,6.60
2022-08-05T22:34:28.493Z,6.55
2022-08-05T22:36:30.978Z,6.50
2022-08-05T22:38:33.027Z,6.47
2022-08-05T22:40:36.478Z,6.10
2022-08-05T22:42:41.262Z,6.45
2022-08-05T22:44:56.787Z,6.30
2022-08-05T22:46:59.149Z,6.72
2022-08-05T22:49:01.176Z,6.50
2022-08-05T22:51:07.070Z,6.10
2022-08-05T22:53:10.458Z,6.13
2022-08-05T22:55:19.331Z,6.03
2022-08-05T22:57:22.149Z,5.78
2022-08-05T22:59:43.852Z,6.53
2022-08-05T23:02:04.059Z,5.95
2022-08-05T23:04:07.317Z,5.53
2022-08-05T23:06:09.386Z,5.90
2022-08-05T23:08:12.479Z,5.75
2022-08-05T23:10:19.960Z,5.82
2022-08-05T23:12:24.450Z,5.10
2022-08-05T23:14:32.240Z,5.25
2022-08-05T23:17:01.090Z,5.40
2022-08-05T23:19:03.098Z,5.38
2022-08-05T23:21:10.662Z,5.38
2022-08-05T23:23:12.643Z,5.45
2022-08-05T23:25:50.172Z,5.63
2022-08-05T23:27:57.560Z,4.80
2022-08-05T23:30:00.902Z,5.38
2022-08-05T23:32:02.932Z,5.57
2022-08-05T23:34:06.974Z,6.47
2022-08-05T23:36:10.051Z,5.18
2022-08-05T23:38:12.316Z,5.53
2022-08-05T23:40:16.343Z,5.40
2022-08-05T23:42:29.763Z,4.75
2022-08-05T23:44:32.412Z,5.20
2022-08-05T23:46:34.791Z,5.82
2022-08-05T23:48:39.519Z,5.75
2022-08-05T23:50:44.344Z,4.75
2022-08-05T23:52:50.022Z,5.15
2022-08-05T23:54:54.038Z,5.63
2022-08-05T23:57:03.250Z,5.80
2022-08-05T23:59:05.629Z,6.20
